createdAt,value
2022-12-15T00:01:34.119Z,77.64
2022-12-15T00:04:25.201Z,77.59
2022-12-15T00:07:15.420Z,77.61
2022-12-15T00:10:05.963Z,77.59
2022-12-15T00:12:56.301Z,77.61
2022-12-15T00:15:46.860Z,77.70
2022-12-15T00:18:37.400Z,77.70
2022-12-15T00:21:27.631Z,77.69
2022-12-15T00:24:17.928Z,77.68
2022-12-15T00:27:08.462Z,77.65
2022-12-15T00:29:59.471Z,77.57
2022-12-15T00:32:52.052Z,77.58
2022-12-15T00:35:42.507Z,77.58
2022-12-15T00:38:34.135Z,77.58
2022-12-15T00:41:07.533Z,77.51
2022-12-15T00:43:40.712Z,77.61
2022-12-15T00:46:32.118Z,77.48
2022-12-15T00:49:06.615Z,77.38
2022-12-15T00:51:57.217Z,77.38
2022-12-15T00:54:47.820Z,77.37
2022-12-15T00:57:38.157Z,77.36
2022-12-15T01:00:31.295Z,77.30
2022-12-15T01:03:22.977Z,77.33
2022-12-15T01:06:13.772Z,77.39
2022-12-15T01:09:04.708Z,77.42
2022-12-15T01:11:55.205Z,77.43
2022-12-15T01:14:46.640Z,77.52
2022-12-15T01:17:38.108Z,77.55
2022-12-15T01:20:20.119Z,77.57
2022-12-15T01:22:55.189Z,77.69
2022-12-15T01:25:29.224Z,77.71
2022-12-15T01:28:02.190Z,77.68
2022-12-15T01:30:35.315Z,77.80
2022-12-15T01:33:08.418Z,77.78
2022-12-15T01:35:42.093Z,77.73
2022-12-15T01:38:15.224Z,77.78
2022-12-15T01:40:55.684Z,77.82
2022-12-15T01:43:31.868Z,77.81
2022-12-15T01:46:08.017Z,77.81
2022-12-15T01:48:48.194Z,77.84
2022-12-15T01:51:29.387Z,77.83
2022-12-15T01:54:05.448Z,77.85
2022-12-15T01:56:41.514Z,77.94
2022-12-15T01:59:17.505Z,77.90
2022-12-15T02:01:50.886Z,77.95
2022-12-15T02:04:26.014Z,77.95
2022-12-15T02:06:59.099Z,77.99
2022-12-15T02:09:32.881Z,77.98
2022-12-15T02:12:10.745Z,77.99
2022-12-15T02:14:55.659Z,77.99
2022-12-15T02:17:35.471Z,78.00
2022-12-15T02:20:39.112Z,78.01
2022-12-15T02:26:40.688Z,78.13
2022-12-15T02:29:21.660Z,78.10
2022-12-15T02:31:57.981Z,78.10
2022-12-15T02:34:34.305Z,78.07
2022-12-15T02:37:10.022Z,78.05
2022-12-15T02:39:43.109Z,78.00
2022-12-15T02:42:17.162Z,77.98
2022-12-15T02:44:53.263Z,77.95
2022-12-15T02:47:31.819Z,77.93
2022-12-15T02:50:34.243Z,77.97
2022-12-15T02:53:15.117Z,77.94
2022-12-15T02:55:51.552Z,77.90
2022-12-15T02:58:29.169Z,77.81
2022-12-15T03:01:02.469Z,77.83
2022-12-15T03:03:37.574Z,77.69
2022-12-15T03:06:12.175Z,77.62
2022-12-15T03:08:45.968Z,77.56
2022-12-15T03:11:23.251Z,77.56
2022-12-15T03:13:56.859Z,77.60
2022-12-15T03:16:32.224Z,77.46
2022-12-15T03:19:08.708Z,77.33
2022-12-15T03:21:43.943Z,77.35
2022-12-15T03:24:18.710Z,77.40
2022-12-15T03:26:55.207Z,77.37
2022-12-15T03:29:30.965Z,77.27
2022-12-15T03:32:04.208Z,77.26
2022-12-15T03:34:40.092Z,77.23
2022-12-15T03:37:22.098Z,77.17
2022-12-15T03:39:56.445Z,77.26
2022-12-15T03:42:50.550Z,77.21
2022-12-15T03:45:25.668Z,77.19
2022-12-15T03:47:59.748Z,77.25
2022-12-15T03:50:33.005Z,77.31
2022-12-15T03:53:07.257Z,77.38
2022-12-15T03:55:40.430Z,77.36
2022-12-15T03:58:13.480Z,77.30
2022-12-15T04:00:47.065Z,77.29
2022-12-15T04:03:20.266Z,77.25
2022-12-15T04:05:53.865Z,77.19
2022-12-15T04:08:26.977Z,77.16
2022-12-15T04:11:00.772Z,77.14
2022-12-15T04:13:34.362Z,77.21
2022-12-15T04:16:08.771Z,77.08
2022-12-15T04:18:41.800Z,76.92
2022-12-15T04:21:16.901Z,76.93
2022-12-15T04:24:07.725Z,76.84
2022-12-15T04:26:58.533Z,76.78
2022-12-15T04:29:49.465Z,76.65
2022-12-15T04:32:39.967Z,76.67
2022-12-15T04:35:31.254Z,76.76
2022-12-15T04:38:23.744Z,76.88
2022-12-15T04:41:14.434Z,76.91
2022-12-15T04:44:04.832Z,76.86
2022-12-15T04:46:55.327Z,76.77
2022-12-15T04:49:45.541Z,76.86
2022-12-15T04:52:36.164Z,76.88
2022-12-15T04:55:27.631Z,76.89
2022-12-15T04:58:19.308Z,76.76
2022-12-15T05:01:10.474Z,76.79
2022-12-15T05:04:00.833Z,76.67
2022-12-15T05:06:51.644Z,76.76
2022-12-15T05:09:41.882Z,76.64
2022-12-15T05:12:32.206Z,76.69
2022-12-15T05:15:22.873Z,76.59
2022-12-15T05:18:13.680Z,76.71
2022-12-15T05:21:04.151Z,76.59
2022-12-15T05:23:54.650Z,76.34
2022-12-15T05:26:50.697Z,76.49
2022-12-15T05:29:36.916Z,76.22
2022-12-15T05:32:10.428Z,76.28
2022-12-15T05:34:43.304Z,76.33
2022-12-15T05:37:16.251Z,76.28
2022-12-15T05:39:49.124Z,76.37
2022-12-15T05:42:22.012Z,76.36
2022-12-15T05:44:54.889Z,76.25
2022-12-15T05:47:28.022Z,76.09
2022-12-15T05:50:01.055Z,76.12
2022-12-15T05:52:34.190Z,76.06
2022-12-15T05:55:08.763Z,75.93
2022-12-15T05:57:41.675Z,75.99
2022-12-15T06:00:16.176Z,75.96
2022-12-15T06:02:50.069Z,75.90
2022-12-15T06:05:23.802Z,75.95
2022-12-15T06:07:56.728Z,75.97
2022-12-15T06:10:29.961Z,75.88
2022-12-15T06:13:03.003Z,75.75
2022-12-15T06:15:35.882Z,75.76
2022-12-15T06:18:09.029Z,75.83
2022-12-15T06:20:42.099Z,75.87
2022-12-15T06:23:15.248Z,75.50
2022-12-15T06:25:48.363Z,75.23
2022-12-15T06:28:23.494Z,75.20
2022-12-15T06:30:57.412Z,75.44
2022-12-15T07:16:23.159Z,70.30
2022-12-15T07:18:59.057Z,68.52
2022-12-15T07:21:32.016Z,70.79
2022-12-15T07:24:05.624Z,69.85
2022-12-15T07:26:38.791Z,69.66
2022-12-15T07:29:14.884Z,69.07
2022-12-15T07:31:47.440Z,68.92
2022-12-15T07:34:20.569Z,69.30
2022-12-15T07:36:53.450Z,69.42
2022-12-15T07:39:27.497Z,69.00
2022-12-15T07:42:00.454Z,69.45
2022-12-15T07:44:33.405Z,69.85
2022-12-15T07:47:06.800Z,70.50
2022-12-15T07:49:39.791Z,70.63
2022-12-15T07:52:14.210Z,71.11
2022-12-15T07:54:47.134Z,71.01
2022-12-15T07:57:20.681Z,70.91
2022-12-15T07:59:53.810Z,71.09
2022-12-15T08:02:27.058Z,71.59
2022-12-15T08:05:00.174Z,71.75
2022-12-15T08:07:33.650Z,71.76
2022-12-15T08:10:08.108Z,71.65
2022-12-15T08:12:41.059Z,71.55
2022-12-15T08:15:15.336Z,71.53
2022-12-15T08:17:48.204Z,71.32
2022-12-15T08:20:21.030Z,71.81
2022-12-15T08:22:55.016Z,71.92
2022-12-15T08:25:29.639Z,72.09
2022-12-15T08:28:02.569Z,72.09
2022-12-15T08:30:36.924Z,71.88
2022-12-15T08:33:09.798Z,72.06
2022-12-15T08:35:56.146Z,72.26
2022-12-15T08:38:18.427Z,72.59
2022-12-15T08:40:51.386Z,72.46
2022-12-15T08:43:24.490Z,72.47
2022-12-15T08:45:57.851Z,72.56
2022-12-15T08:48:30.894Z,72.81
2022-12-15T08:51:04.397Z,72.52
2022-12-15T08:53:37.361Z,72.37
2022-12-15T08:56:13.193Z,72.56
2022-12-15T08:58:46.659Z,72.56
2022-12-15T09:01:23.735Z,72.20
2022-12-15T09:03:58.177Z,72.25
2022-12-15T09:06:33.545Z,72.26
2022-12-15T09:09:09.373Z,72.39
2022-12-15T09:11:42.571Z,72.52
2022-12-15T09:14:16.160Z,72.77
2022-12-15T09:16:50.586Z,72.95
2022-12-15T09:19:24.027Z,72.80
2022-12-15T09:21:57.179Z,72.86
2022-12-15T09:24:35.096Z,72.98
2022-12-15T09:27:05.757Z,72.92
2022-12-15T09:29:39.413Z,72.49
2022-12-15T09:32:14.599Z,72.58
2022-12-15T09:34:47.682Z,72.30
2022-12-15T09:37:22.606Z,72.51
2022-12-15T09:39:55.685Z,72.77
2022-12-15T09:42:32.025Z,72.32
2022-12-15T09:45:08.851Z,72.42
2022-12-15T09:47:46.897Z,72.58
2022-12-15T09:50:23.269Z,72.58
2022-12-15T09:52:59.225Z,72.68
2022-12-15T09:55:33.944Z,72.71
2022-12-15T09:58:11.275Z,72.75
2022-12-15T10:00:52.199Z,72.54
2022-12-15T10:03:38.697Z,72.52
2022-12-15T10:06:18.336Z,72.45
2022-12-15T10:08:52.627Z,72.67
2022-12-15T10:11:34.694Z,72.69
2022-12-15T10:14:11.282Z,72.80
2022-12-15T10:16:50.165Z,72.60
2022-12-15T10:19:26.393Z,72.48
2022-12-15T10:22:00.659Z,72.67
2022-12-15T10:25:08.631Z,72.70
2022-12-15T10:27:17.605Z,72.38
2022-12-15T10:29:54.633Z,72.31
2022-12-15T10:32:36.720Z,72.49
2022-12-15T10:35:16.520Z,72.37
2022-12-15T10:37:50.075Z,72.53
2022-12-15T10:40:30.039Z,72.64
2022-12-15T10:43:04.767Z,72.45
2022-12-15T10:45:40.869Z,71.90
2022-12-15T10:48:22.259Z,72.08
2022-12-15T10:51:05.762Z,72.27
2022-12-15T10:53:43.945Z,72.30
2022-12-15T10:56:30.671Z,72.18
2022-12-15T10:59:01.353Z,72.11
2022-12-15T11:01:36.339Z,72.30
2022-12-15T11:04:26.361Z,72.45
2022-12-15T11:07:01.195Z,72.57
2022-12-15T11:09:38.369Z,72.60
2022-12-15T11:12:37.007Z,72.42
2022-12-15T11:15:35.814Z,72.35
2022-12-15T11:18:14.252Z,72.51
2022-12-15T11:20:50.868Z,72.69
2022-12-15T11:23:29.807Z,72.27
2022-12-15T11:26:07.300Z,72.36
2022-12-15T11:28:44.367Z,72.49
2022-12-15T11:31:23.069Z,72.59
2022-12-15T11:33:56.581Z,72.45
2022-12-15T11:36:40.791Z,72.37
2022-12-15T11:39:17.957Z,72.26
2022-12-15T11:41:57.453Z,72.15
2022-12-15T11:44:34.077Z,72.20
2022-12-15T11:47:12.186Z,72.23
2022-12-15T11:53:15.025Z,72.09
2022-12-15T11:55:53.577Z,71.91
2022-12-15T11:58:51.570Z,71.34
2022-12-15T12:01:34.882Z,71.70
2022-12-15T12:04:11.364Z,70.99
2022-12-15T12:06:47.724Z,71.24
2022-12-15T12:09:38.340Z,71.54
2022-12-15T12:12:19.743Z,71.43
2022-12-15T12:15:00.856Z,71.40
2022-12-15T12:17:41.574Z,71.44
2022-12-15T12:20:20.591Z,71.09
2022-12-15T12:22:59.216Z,71.44
2022-12-15T12:28:36.986Z,71.30
2022-12-15T12:31:14.750Z,71.38
2022-12-15T12:33:48.548Z,71.46
2022-12-15T12:36:21.665Z,71.54
2022-12-15T12:38:56.859Z,71.61
2022-12-15T12:41:35.797Z,71.55
2022-12-15T12:44:14.169Z,71.46
2022-12-15T12:49:28.504Z,71.49
2022-12-15T12:52:04.456Z,71.19
2022-12-15T12:54:51.327Z,71.13
2022-12-15T12:57:37.868Z,71.11
2022-12-15T13:00:24.150Z,71.37
2022-12-15T13:03:18.090Z,71.49
2022-12-15T13:05:54.580Z,71.72
2022-12-15T13:08:52.362Z,71.61
2022-12-15T13:12:20.961Z,71.86
2022-12-15T13:17:52.855Z,71.46
2022-12-15T13:20:28.783Z,71.65
2022-12-15T13:26:27.567Z,71.66
2022-12-15T13:29:00.863Z,71.69
2022-12-15T13:31:49.048Z,71.71
2022-12-15T13:34:25.848Z,71.76
2022-12-15T13:37:01.180Z,71.54
2022-12-15T13:42:51.207Z,71.63
2022-12-15T13:45:44.951Z,71.55
2022-12-15T13:48:36.707Z,71.69
2022-12-15T13:51:23.421Z,71.62
2022-12-15T13:54:01.010Z,71.76
2022-12-15T13:56:41.443Z,71.85
2022-12-15T13:59:39.386Z,71.76
2022-12-15T14:02:28.340Z,71.79
2022-12-15T14:05:17.632Z,71.60
2022-12-15T14:07:55.002Z,71.63
2022-12-15T14:10:31.283Z,71.14
2022-12-15T14:13:15.939Z,70.91
2022-12-15T14:15:50.778Z,71.17
2022-12-15T14:18:29.864Z,71.27
2022-12-15T14:21:05.499Z,71.25
2022-12-15T14:24:19.231Z,71.18
2022-12-15T14:26:20.398Z,71.34
2022-12-15T14:28:56.472Z,71.21
2022-12-15T14:31:31.409Z,71.09
2022-12-15T14:34:07.503Z,71.17
2022-12-15T14:36:43.600Z,70.75
2022-12-15T14:39:23.146Z,70.49
2022-12-15T14:42:01.370Z,70.32
2022-12-15T14:44:58.040Z,70.37
2022-12-15T14:47:43.093Z,70.37
2022-12-15T14:50:24.986Z,70.49
2022-12-15T15:00:34.898Z,69.60
2022-12-15T15:03:07.203Z,71.52
2022-12-15T15:05:59.168Z,69.17
2022-12-15T15:08:35.590Z,68.27
2022-12-15T15:11:24.024Z,67.65
2022-12-15T15:14:00.047Z,67.50
2022-12-15T15:16:33.486Z,67.52
2022-12-15T15:19:08.526Z,67.83
2022-12-15T15:21:41.603Z,67.88
2022-12-15T15:24:27.286Z,68.19
2022-12-15T15:27:26.351Z,68.16
2022-12-15T15:30:19.958Z,68.11
2022-12-15T15:32:58.897Z,67.77
2022-12-15T15:35:35.317Z,67.95
2022-12-15T15:38:13.327Z,68.22
2022-12-15T15:40:51.825Z,68.54
2022-12-15T15:43:25.557Z,68.61
2022-12-15T15:46:02.117Z,68.83
2022-12-15T15:48:38.554Z,69.06
2022-12-15T15:51:12.829Z,69.30
2022-12-15T15:53:46.760Z,69.67
2022-12-15T15:56:21.127Z,70.04
2022-12-15T15:58:54.679Z,70.43
2022-12-15T16:01:28.296Z,70.68
2022-12-15T16:04:01.947Z,71.05
2022-12-15T16:09:24.276Z,71.68
2022-12-15T16:12:00.694Z,71.85
2022-12-15T16:14:33.946Z,72.01
2022-12-15T16:17:11.048Z,72.25
2022-12-15T16:19:44.333Z,72.50
2022-12-15T16:22:19.368Z,72.55
2022-12-15T16:24:52.858Z,72.93
2022-12-15T16:27:26.160Z,73.11
2022-12-15T16:29:59.404Z,73.26
2022-12-15T16:32:34.493Z,73.33
2022-12-15T16:35:08.861Z,73.24
2022-12-15T16:37:46.754Z,73.40
2022-12-15T16:40:22.651Z,73.63
2022-12-15T16:42:58.680Z,73.82
2022-12-15T16:45:33.776Z,73.82
2022-12-15T16:48:07.359Z,74.00
2022-12-15T16:50:43.624Z,74.15
2022-12-15T16:53:20.508Z,74.15
2022-12-15T16:55:56.832Z,74.12
2022-12-15T16:58:32.335Z,74.06
2022-12-15T17:01:17.073Z,74.20
2022-12-15T17:03:51.910Z,74.35
2022-12-15T17:06:25.246Z,74.42
2022-12-15T17:08:59.582Z,74.64
2022-12-15T17:11:33.656Z,74.68
2022-12-15T17:16:58.748Z,74.88
2022-12-15T17:19:32.109Z,74.76
2022-12-15T17:22:09.947Z,74.69
2022-12-15T17:24:46.841Z,74.72
2022-12-15T17:27:28.032Z,74.81
2022-12-15T17:30:06.789Z,74.64
2022-12-15T17:32:46.018Z,74.84
2022-12-15T17:35:21.862Z,74.95
2022-12-15T17:37:56.351Z,74.91
2022-12-15T17:40:29.647Z,74.66
2022-12-15T17:43:04.211Z,74.65
2022-12-15T17:45:39.946Z,74.75
2022-12-15T17:48:15.926Z,75.00
2022-12-15T17:54:38.047Z,74.99
2022-12-15T17:57:13.487Z,74.74
2022-12-15T17:59:47.378Z,74.94
2022-12-15T18:02:20.740Z,75.01
2022-12-15T18:04:55.432Z,75.01
2022-12-15T18:07:31.599Z,75.01
2022-12-15T18:10:08.303Z,75.11
2022-12-15T18:12:41.490Z,75.21
2022-12-15T18:15:21.973Z,75.14
2022-12-15T18:17:55.249Z,75.15
2022-12-15T18:20:30.859Z,75.28
2022-12-15T18:23:04.013Z,75.24
2022-12-15T18:25:37.103Z,75.11
2022-12-15T18:28:18.459Z,75.09
2022-12-15T18:30:53.666Z,75.31
2022-12-15T18:33:27.578Z,75.27
2022-12-15T18:36:00.938Z,75.41
2022-12-15T18:38:34.414Z,75.52
2022-12-15T18:41:09.429Z,75.52
2022-12-15T18:43:43.746Z,75.55
2022-12-15T18:46:20.504Z,75.56
2022-12-15T18:48:58.978Z,75.70
2022-12-15T18:51:32.393Z,75.52
2022-12-15T18:54:26.710Z,75.58
2022-12-15T18:56:59.859Z,75.66
2022-12-15T18:59:33.346Z,75.60
2022-12-15T19:02:08.126Z,75.61
2022-12-15T19:04:41.439Z,75.87
2022-12-15T19:07:14.905Z,75.80
2022-12-15T19:09:47.992Z,75.89
2022-12-15T19:12:21.710Z,75.91
2022-12-15T19:14:55.369Z,76.12
2022-12-15T19:18:04.523Z,76.21
2022-12-15T19:23:20.159Z,76.16
2022-12-15T19:25:54.635Z,76.11
2022-12-15T19:28:27.983Z,76.08
2022-12-15T19:31:04.269Z,76.14
2022-12-15T19:33:37.514Z,76.08
2022-12-15T19:36:16.725Z,76.07
2022-12-15T19:38:51.824Z,76.02
2022-12-15T19:41:29.743Z,76.11
2022-12-15T19:44:08.440Z,76.07
2022-12-15T19:46:47.682Z,75.88
2022-12-15T19:49:28.101Z,76.09
2022-12-15T19:52:03.452Z,76.12
2022-12-15T19:54:38.139Z,76.10
2022-12-15T19:57:14.343Z,75.92
2022-12-15T19:59:47.867Z,76.06
2022-12-15T20:02:22.441Z,75.94
2022-12-15T20:04:58.673Z,75.96
2022-12-15T20:07:41.216Z,75.92
2022-12-15T20:10:27.859Z,75.66
2022-12-15T20:12:58.726Z,75.63
2022-12-15T20:15:32.109Z,75.59
2022-12-15T20:18:08.307Z,75.58
2022-12-15T20:20:47.183Z,75.63
2022-12-15T20:23:26.604Z,75.78
2022-12-15T20:26:02.986Z,75.91
2022-12-15T20:28:38.794Z,76.04
2022-12-15T20:31:16.293Z,75.62
2022-12-15T20:33:50.505Z,75.74
2022-12-15T20:36:26.741Z,75.91
2022-12-15T20:39:02.387Z,75.98
2022-12-15T20:41:40.344Z,75.85
2022-12-15T20:44:15.400Z,75.68
2022-12-15T20:46:49.347Z,75.58
2022-12-15T20:49:24.293Z,75.77
2022-12-15T20:51:58.256Z,75.83
2022-12-15T20:54:31.586Z,75.63
2022-12-15T20:57:05.414Z,75.46
2022-12-15T20:59:39.091Z,75.51
2022-12-15T21:02:21.011Z,75.29
2022-12-15T21:04:55.921Z,75.08
2022-12-15T21:07:29.315Z,75.17
2022-12-15T21:10:02.945Z,75.47
2022-12-15T21:12:37.042Z,75.51
2022-12-15T21:15:17.173Z,75.60
2022-12-15T21:18:16.991Z,75.83
2022-12-15T21:20:26.809Z,75.85
2022-12-15T21:23:02.641Z,75.92
2022-12-15T21:25:36.290Z,76.09
2022-12-15T21:28:13.407Z,76.19
2022-12-15T21:30:46.826Z,76.37
2022-12-15T21:33:20.878Z,76.54
2022-12-15T21:35:54.219Z,76.75
2022-12-15T21:38:33.923Z,76.55
2022-12-15T21:41:10.942Z,76.76
2022-12-15T21:43:47.650Z,76.86
2022-12-15T21:46:27.787Z,76.89
2022-12-15T21:49:18.501Z,76.83
2022-12-15T21:51:55.127Z,76.97
2022-12-15T21:54:31.637Z,77.07
2022-12-15T21:57:05.351Z,77.34
2022-12-15T21:59:38.700Z,76.98
2022-12-15T22:02:25.280Z,76.92
2022-12-15T22:04:58.738Z,76.99
2022-12-15T22:07:32.776Z,76.97
2022-12-15T22:10:07.239Z,76.86
2022-12-15T22:12:42.278Z,76.98
2022-12-15T22:18:01.702Z,76.63
2022-12-15T22:20:34.863Z,76.79
2022-12-15T22:23:08.281Z,76.47
2022-12-15T22:25:41.420Z,76.42
2022-12-15T22:28:22.661Z,76.42
2022-12-15T22:30:57.263Z,76.43
2022-12-15T22:33:31.901Z,76.59
2022-12-15T22:36:05.272Z,76.49
2022-12-15T22:38:38.384Z,76.20
2022-12-15T22:41:18.826Z,76.16
2022-12-15T22:43:54.424Z,76.02
2022-12-15T22:46:28.248Z,76.00
2022-12-15T22:49:01.628Z,75.76
2022-12-15T22:51:37.245Z,75.74
2022-12-15T22:54:19.883Z,75.74
2022-12-15T22:56:56.226Z,75.86
2022-12-15T22:59:32.443Z,75.85
2022-12-15T23:02:06.391Z,76.09
2022-12-15T23:04:39.811Z,76.13
2022-12-15T23:07:13.103Z,76.11
2022-12-15T23:09:46.386Z,76.24
2022-12-15T23:12:22.350Z,76.40
2022-12-15T23:15:21.786Z,76.43
2022-12-15T23:17:55.268Z,76.45
2022-12-15T23:20:28.446Z,76.56
2022-12-15T23:23:03.503Z,76.51
2022-12-15T23:25:37.264Z,76.46
2022-12-15T23:28:10.771Z,76.43
2022-12-15T23:30:43.997Z,76.54
2022-12-15T23:33:17.533Z,76.41
2022-12-15T23:35:51.139Z,76.44
2022-12-15T23:38:25.761Z,76.38
2022-12-15T23:40:59.371Z,76.21
2022-12-15T23:43:35.498Z,76.20
2022-12-15T23:46:09.805Z,76.05
2022-12-15T23:48:45.607Z,76.01
2022-12-15T23:51:20.446Z,75.98
2022-12-15T23:53:53.735Z,75.63
2022-12-15T23:56:28.108Z,75.72
2022-12-15T23:59:02.162Z,75.58
